sensor_id;sensor_type;location;lat;lon;timestamp;temperature;humidity
69747;DHT22;57018;50.278;19.134;2022-12-07T00:00:33;3.90;98.70
69747;DHT22;57018;50.278;19.134;2022-12-07T00:03:03;4.00;98.80
69747;DHT22;57018;50.278;19.134;2022-12-07T00:05:33;4.10;98.60
69747;DHT22;57018;50.278;19.134;2022-12-07T00:08:03;3.90;99.20
69747;DHT22;57018;50.278;19.134;2022-12-07T00:10:34;3.90;99.20
69747;DHT22;57018;50.278;19.134;2022-12-07T00:13:04;3.80;99.10
69747;DHT22;57018;50.278;19.134;2022-12-07T00:15:34;4.00;99.20
69747;DHT22;57018;50.278;19.134;2022-12-07T00:18:05;3.90;98.80
69747;DHT22;57018;50.278;19.134;2022-12-07T00:20:35;3.90;98.80
69747;DHT22;57018;50.278;19.134;2022-12-07T00:23:04;3.70;98.90
69747;DHT22;57018;50.278;19.134;2022-12-07T00:25:34;3.80;99.30
69747;DHT22;57018;50.278;19.134;2022-12-07T00:28:04;3.80;99.10
69747;DHT22;57018;50.278;19.134;2022-12-07T00:30:36;4.00;99.10
69747;DHT22;57018;50.278;19.134;2022-12-07T00:33:06;3.90;98.70
69747;DHT22;57018;50.278;19.134;2022-12-07T00:35:35;3.70;98.90
69747;DHT22;57018;50.278;19.134;2022-12-07T00:38:05;3.70;98.90
69747;DHT22;57018;50.278;19.134;2022-12-07T00:40:36;3.90;98.80
69747;DHT22;57018;50.278;19.134;2022-12-07T00:43:06;3.90;98.90
69747;DHT22;57018;50.278;19.134;2022-12-07T00:45:35;3.60;98.80
69747;DHT22;57018;50.278;19.134;2022-12-07T00:48:05;3.80;99.20
69747;DHT22;57018;50.278;19.134;2022-12-07T00:50:35;3.60;99.50
69747;DHT22;57018;50.278;19.134;2022-12-07T00:53:05;3.90;98.80
69747;DHT22;57018;50.278;19.134;2022-12-07T00:55:35;3.90;99.20
69747;DHT22;57018;50.278;19.134;2022-12-07T00:58:06;3.90;99.20
69747;DHT22;57018;50.278;19.134;2022-12-07T01:00:38;3.80;98.80
69747;DHT22;57018;50.278;19.134;2022-12-07T01:03:10;3.60;99.00
69747;DHT22;57018;50.278;19.134;2022-12-07T01:05:41;3.70;99.20
69747;DHT22;57018;50.278;19.134;2022-12-07T01:08:18;3.80;99.10
69747;DHT22;57018;50.278;19.134;2022-12-07T01:10:48;3.80;98.90
69747;DHT22;57018;50.278;19.134;2022-12-07T01:13:18;3.80;99.40
69747;DHT22;57018;50.278;19.134;2022-12-07T01:15:48;3.90;99.20
69747;DHT22;57018;50.278;19.134;2022-12-07T01:18:18;3.90;98.90
69747;DHT22;57018;50.278;19.134;2022-12-07T01:20:58;3.90;98.70
69747;DHT22;57018;50.278;19.134;2022-12-07T01:23:29;3.80;99.00
69747;DHT22;57018;50.278;19.134;2022-12-07T01:26:00;3.80;99.40
69747;DHT22;57018;50.278;19.134;2022-12-07T01:28:31;3.50;99.30
69747;DHT22;57018;50.278;19.134;2022-12-07T01:31:02;3.70;99.70
69747;DHT22;57018;50.278;19.134;2022-12-07T01:33:35;4.00;99.50
69747;DHT22;57018;50.278;19.134;2022-12-07T01:36:07;3.70;99.70
69747;DHT22;57018;50.278;19.134;2022-12-07T01:38:37;3.60;99.60
69747;DHT22;57018;50.278;19.134;2022-12-07T01:41:07;3.60;99.90
69747;DHT22;57018;50.278;19.134;2022-12-07T01:44:06;3.60;99.90
69747;DHT22;57018;50.278;19.134;2022-12-07T01:46:31;3.70;99.90
69747;DHT22;57018;50.278;19.134;2022-12-07T01:49:02;3.60;99.90
69747;DHT22;57018;50.278;19.134;2022-12-07T01:51:33;3.80;99.90
69747;DHT22;57018;50.278;19.134;2022-12-07T01:54:04;3.80;99.90
69747;DHT22;57018;50.278;19.134;2022-12-07T01:56:34;3.90;99.90
69747;DHT22;57018;50.278;19.134;2022-12-07T01:59:02;4.00;99.90
69747;DHT22;57018;50.278;19.134;2022-12-07T02:01:33;3.90;99.60
69747;DHT22;57018;50.278;19.134;2022-12-07T02:04:03;3.90;99.80
69747;DHT22;57018;50.278;19.134;2022-12-07T02:06:34;3.90;99.50
69747;DHT22;57018;50.278;19.134;2022-12-07T02:09:05;4.00;99.50
69747;DHT22;57018;50.278;19.134;2022-12-07T02:11:35;4.00;99.40
69747;DHT22;57018;50.278;19.134;2022-12-07T02:14:06;3.90;98.90
69747;DHT22;57018;50.278;19.134;2022-12-07T02:16:45;4.00;99.10
69747;DHT22;57018;50.278;19.134;2022-12-07T02:19:38;3.90;99.10
69747;DHT22;57018;50.278;19.134;2022-12-07T02:22:22;4.00;99.50
69747;DHT22;57018;50.278;19.134;2022-12-07T02:24:58;4.00;99.60
69747;DHT22;57018;50.278;19.134;2022-12-07T02:27:46;4.10;99.90
69747;DHT22;57018;50.278;19.134;2022-12-07T02:30:17;4.00;99.90
69747;DHT22;57018;50.278;19.134;2022-12-07T02:32:54;4.00;99.90
69747;DHT22;57018;50.278;19.134;2022-12-07T02:35:32;4.10;99.90
69747;DHT22;57018;50.278;19.134;2022-12-07T02:38:11;4.10;99.90
69747;DHT22;57018;50.278;19.134;2022-12-07T02:40:50;4.10;99.90
69747;DHT22;57018;50.278;19.134;2022-12-07T02:43:25;4.10;99.90
69747;DHT22;57018;50.278;19.134;2022-12-07T02:45:59;3.90;99.90
69747;DHT22;57018;50.278;19.134;2022-12-07T02:48:29;4.10;99.90
69747;DHT22;57018;50.278;19.134;2022-12-07T02:51:00;3.90;99.90
69747;DHT22;57018;50.278;19.134;2022-12-07T02:53:36;4.20;99.80
69747;DHT22;57018;50.278;19.134;2022-12-07T02:56:05;4.00;99.90
69747;DHT22;57018;50.278;19.134;2022-12-07T02:58:49;3.80;99.90
69747;DHT22;57018;50.278;19.134;2022-12-07T03:01:28;4.10;99.90
69747;DHT22;57018;50.278;19.134;2022-12-07T03:04:02;3.80;99.90
69747;DHT22;57018;50.278;19.134;2022-12-07T03:06:34;3.80;99.90
69747;DHT22;57018;50.278;19.134;2022-12-07T03:09:13;3.90;99.80
69747;DHT22;57018;50.278;19.134;2022-12-07T03:11:48;3.80;99.90
69747;DHT22;57018;50.278;19.134;2022-12-07T03:14:23;4.00;99.90
69747;DHT22;57018;50.278;19.134;2022-12-07T03:16:57;3.90;99.90
69747;DHT22;57018;50.278;19.134;2022-12-07T03:19:32;3.80;99.90
69747;DHT22;57018;50.278;19.134;2022-12-07T03:22:05;4.00;99.90
69747;DHT22;57018;50.278;19.134;2022-12-07T03:24:39;4.00;99.90
69747;DHT22;57018;50.278;19.134;2022-12-07T03:27:18;4.00;99.90
69747;DHT22;57018;50.278;19.134;2022-12-07T03:29:52;4.00;99.90
69747;DHT22;57018;50.278;19.134;2022-12-07T03:32:27;4.00;99.90
69747;DHT22;57018;50.278;19.134;2022-12-07T03:35:03;4.00;99.70
69747;DHT22;57018;50.278;19.134;2022-12-07T03:37:39;3.90;99.70
69747;DHT22;57018;50.278;19.134;2022-12-07T03:40:16;3.80;99.80
69747;DHT22;57018;50.278;19.134;2022-12-07T03:42:48;4.10;99.80
69747;DHT22;57018;50.278;19.134;2022-12-07T03:45:18;4.10;99.40
69747;DHT22;57018;50.278;19.134;2022-12-07T03:47:54;4.10;99.20
69747;DHT22;57018;50.278;19.134;2022-12-07T03:50:35;4.00;99.40
69747;DHT22;57018;50.278;19.134;2022-12-07T03:53:11;3.90;99.50
69747;DHT22;57018;50.278;19.134;2022-12-07T03:55:44;4.00;99.10
69747;DHT22;57018;50.278;19.134;2022-12-07T03:58:19;4.00;99.20
69747;DHT22;57018;50.278;19.134;2022-12-07T04:00:51;4.10;99.40
69747;DHT22;57018;50.278;19.134;2022-12-07T04:03:21;3.80;99.00
69747;DHT22;57018;50.278;19.134;2022-12-07T04:05:51;4.00;99.40
69747;DHT22;57018;50.278;19.134;2022-12-07T04:08:21;4.00;99.40
69747;DHT22;57018;50.278;19.134;2022-12-07T04:10:51;4.10;99.50
69747;DHT22;57018;50.278;19.134;2022-12-07T04:13:21;4.10;99.40
69747;DHT22;57018;50.278;19.134;2022-12-07T04:15:51;4.00;99.30
69747;DHT22;57018;50.278;19.134;2022-12-07T04:18:21;4.00;98.90
69747;DHT22;57018;50.278;19.134;2022-12-07T04:20:50;4.00;99.20
69747;DHT22;57018;50.278;19.134;2022-12-07T04:23:19;4.10;99.20
69747;DHT22;57018;50.278;19.134;2022-12-07T04:25:50;4.10;99.30
69747;DHT22;57018;50.278;19.134;2022-12-07T04:28:20;3.90;99.40
69747;DHT22;57018;50.278;19.134;2022-12-07T04:30:50;4.10;99.70
69747;DHT22;57018;50.278;19.134;2022-12-07T04:33:18;4.00;99.10
69747;DHT22;57018;50.278;19.134;2022-12-07T04:35:48;3.90;98.60
69747;DHT22;57018;50.278;19.134;2022-12-07T04:38:16;3.90;98.60
69747;DHT22;57018;50.278;19.134;2022-12-07T04:40:46;3.80;99.20
69747;DHT22;57018;50.278;19.134;2022-12-07T04:43:16;3.70;98.60
69747;DHT22;57018;50.278;19.134;2022-12-07T04:45:48;3.80;98.90
69747;DHT22;57018;50.278;19.134;2022-12-07T04:48:19;3.80;98.30
69747;DHT22;57018;50.278;19.134;2022-12-07T04:50:50;4.00;98.20
69747;DHT22;57018;50.278;19.134;2022-12-07T04:53:20;4.10;98.00
69747;DHT22;57018;50.278;19.134;2022-12-07T04:55:50;3.80;98.10
69747;DHT22;57018;50.278;19.134;2022-12-07T04:58:20;3.90;97.70
69747;DHT22;57018;50.278;19.134;2022-12-07T05:00:53;3.80;98.00
69747;DHT22;57018;50.278;19.134;2022-12-07T05:03:23;3.70;98.00
69747;DHT22;57018;50.278;19.134;2022-12-07T05:05:53;3.70;97.70
69747;DHT22;57018;50.278;19.134;2022-12-07T05:08:22;3.70;98.20
69747;DHT22;57018;50.278;19.134;2022-12-07T05:10:53;3.70;98.70
69747;DHT22;57018;50.278;19.134;2022-12-07T05:13:23;3.70;98.60
69747;DHT22;57018;50.278;19.134;2022-12-07T05:15:52;3.80;98.50
69747;DHT22;57018;50.278;19.134;2022-12-07T05:18:22;3.50;98.90
69747;DHT22;57018;50.278;19.134;2022-12-07T05:20:53;3.70;99.00
69747;DHT22;57018;50.278;19.134;2022-12-07T05:23:22;3.60;99.00
69747;DHT22;57018;50.278;19.134;2022-12-07T05:25:51;3.80;98.60
69747;DHT22;57018;50.278;19.134;2022-12-07T05:28:21;3.50;98.40
69747;DHT22;57018;50.278;19.134;2022-12-07T05:30:50;3.70;98.50
69747;DHT22;57018;50.278;19.134;2022-12-07T05:33:19;3.70;98.70
69747;DHT22;57018;50.278;19.134;2022-12-07T05:35:48;3.60;98.80
69747;DHT22;57018;50.278;19.134;2022-12-07T05:38:18;3.70;98.70
69747;DHT22;57018;50.278;19.134;2022-12-07T05:40:48;3.50;98.70
69747;DHT22;57018;50.278;19.134;2022-12-07T05:43:18;3.60;98.60
69747;DHT22;57018;50.278;19.134;2022-12-07T05:45:46;3.50;99.20
69747;DHT22;57018;50.278;19.134;2022-12-07T05:48:16;3.60;98.90
69747;DHT22;57018;50.278;19.134;2022-12-07T05:50:48;3.70;99.30
69747;DHT22;57018;50.278;19.134;2022-12-07T05:53:19;3.60;99.00
69747;DHT22;57018;50.278;19.134;2022-12-07T05:55:49;3.80;98.80
69747;DHT22;57018;50.278;19.134;2022-12-07T05:58:18;3.60;98.80
69747;DHT22;57018;50.278;19.134;2022-12-07T06:01:06;3.80;98.70
69747;DHT22;57018;50.278;19.134;2022-12-07T06:03:36;3.90;98.50
69747;DHT22;57018;50.278;19.134;2022-12-07T06:06:06;3.70;98.40
69747;DHT22;57018;50.278;19.134;2022-12-07T06:08:36;3.80;98.60
69747;DHT22;57018;50.278;19.134;2022-12-07T06:11:06;3.60;98.40
69747;DHT22;57018;50.278;19.134;2022-12-07T06:13:54;3.60;98.30
69747;DHT22;57018;50.278;19.134;2022-12-07T06:16:23;3.60;98.70
69747;DHT22;57018;50.278;19.134;2022-12-07T06:18:53;3.50;98.70
69747;DHT22;57018;50.278;19.134;2022-12-07T06:21:23;3.60;98.90
69747;DHT22;57018;50.278;19.134;2022-12-07T06:23:52;3.50;99.00
69747;DHT22;57018;50.278;19.134;2022-12-07T06:26:22;3.70;98.70
69747;DHT22;57018;50.278;19.134;2022-12-07T06:28:52;3.60;98.70
69747;DHT22;57018;50.278;19.134;2022-12-07T06:31:22;3.70;98.70
69747;DHT22;57018;50.278;19.134;2022-12-07T06:33:56;3.50;99.00
69747;DHT22;57018;50.278;19.134;2022-12-07T06:36:26;3.60;99.40
69747;DHT22;57018;50.278;19.134;2022-12-07T06:38:56;3.50;99.20
69747;DHT22;57018;50.278;19.134;2022-12-07T06:41:26;3.70;98.80
69747;DHT22;57018;50.278;19.134;2022-12-07T06:43:56;3.70;98.90
69747;DHT22;57018;50.278;19.134;2022-12-07T06:46:26;3.80;99.10
69747;DHT22;57018;50.278;19.134;2022-12-07T06:48:56;3.50;99.00
69747;DHT22;57018;50.278;19.134;2022-12-07T06:51:26;3.70;99.20
69747;DHT22;57018;50.278;19.134;2022-12-07T06:53:56;3.70;98.80
69747;DHT22;57018;50.278;19.134;2022-12-07T06:56:26;3.70;99.20
69747;DHT22;57018;50.278;19.134;2022-12-07T06:58:57;3.90;99.10
69747;DHT22;57018;50.278;19.134;2022-12-07T07:01:27;4.00;99.20
69747;DHT22;57018;50.278;19.134;2022-12-07T07:03:57;3.90;98.90
69747;DHT22;57018;50.278;19.134;2022-12-07T07:06:27;4.00;98.80
69747;DHT22;57018;50.278;19.134;2022-12-07T07:08:56;3.80;98.40
69747;DHT22;57018;50.278;19.134;2022-12-07T07:11:26;3.90;98.60
69747;DHT22;57018;50.278;19.134;2022-12-07T07:13:56;4.10;98.40
69747;DHT22;57018;50.278;19.134;2022-12-07T07:16:31;3.80;97.80
69747;DHT22;57018;50.278;19.134;2022-12-07T07:19:01;3.90;97.60
69747;DHT22;57018;50.278;19.134;2022-12-07T07:21:32;3.90;97.50
69747;DHT22;57018;50.278;19.134;2022-12-07T07:24:02;4.00;97.90
69747;DHT22;57018;50.278;19.134;2022-12-07T07:26:30;4.00;97.30
69747;DHT22;57018;50.278;19.134;2022-12-07T07:29:00;3.80;97.40
69747;DHT22;57018;50.278;19.134;2022-12-07T07:31:30;4.00;97.40
69747;DHT22;57018;50.278;19.134;2022-12-07T07:34:00;3.90;97.20
69747;DHT22;57018;50.278;19.134;2022-12-07T07:36:30;4.10;97.10
69747;DHT22;57018;50.278;19.134;2022-12-07T07:39:00;4.00;97.00
69747;DHT22;57018;50.278;19.134;2022-12-07T07:41:29;4.20;96.60
69747;DHT22;57018;50.278;19.134;2022-12-07T07:44:00;3.90;96.80
69747;DHT22;57018;50.278;19.134;2022-12-07T07:46:30;4.00;96.80
69747;DHT22;57018;50.278;19.134;2022-12-07T07:49:01;4.00;97.40
69747;DHT22;57018;50.278;19.134;2022-12-07T07:51:31;4.10;97.50
69747;DHT22;57018;50.278;19.134;2022-12-07T07:54:01;4.10;97.10
69747;DHT22;57018;50.278;19.134;2022-12-07T07:56:31;4.10;96.70
69747;DHT22;57018;50.278;19.134;2022-12-07T07:59:00;4.30;96.50
69747;DHT22;57018;50.278;19.134;2022-12-07T08:01:30;4.20;96.10
69747;DHT22;57018;50.278;19.134;2022-12-07T08:04:00;4.50;96.40
69747;DHT22;57018;50.278;19.134;2022-12-07T08:06:30;4.50;96.30
69747;DHT22;57018;50.278;19.134;2022-12-07T08:09:03;4.50;96.10
69747;DHT22;57018;50.278;19.134;2022-12-07T08:11:33;4.60;95.60
69747;DHT22;57018;50.278;19.134;2022-12-07T08:14:04;4.40;95.40
69747;DHT22;57018;50.278;19.134;2022-12-07T08:16:34;4.70;95.00
69747;DHT22;57018;50.278;19.134;2022-12-07T08:19:08;4.60;95.20
69747;DHT22;57018;50.278;19.134;2022-12-07T08:21:38;4.80;95.20
69747;DHT22;57018;50.278;19.134;2022-12-07T08:24:09;5.00;95.20
69747;DHT22;57018;50.278;19.134;2022-12-07T08:26:39;5.10;94.90
69747;DHT22;57018;50.278;19.134;2022-12-07T08:29:09;5.00;94.80
69747;DHT22;57018;50.278;19.134;2022-12-07T08:31:40;5.10;94.20
69747;DHT22;57018;50.278;19.134;2022-12-07T08:34:11;5.30;93.50
69747;DHT22;57018;50.278;19.134;2022-12-07T08:36:42;5.20;93.50
69747;DHT22;57018;50.278;19.134;2022-12-07T08:39:13;5.10;92.90
69747;DHT22;57018;50.278;19.134;2022-12-07T08:41:43;5.10;93.70
69747;DHT22;57018;50.278;19.134;2022-12-07T08:44:13;5.10;93.40
69747;DHT22;57018;50.278;19.134;2022-12-07T08:46:47;5.00;93.90
69747;DHT22;57018;50.278;19.134;2022-12-07T19:45:55;3.30;92.60
69747;DHT22;57018;50.278;19.134;2022-12-07T19:48:26;3.60;93.10
69747;DHT22;57018;50.278;19.134;2022-12-07T19:51:02;3.70;91.20
69747;DHT22;57018;50.278;19.134;2022-12-07T19:53:33;3.90;91.60
69747;DHT22;57018;50.278;19.134;2022-12-07T19:56:03;3.80;90.60
69747;DHT22;57018;50.278;19.134;2022-12-07T19:58:33;4.10;90.80
69747;DHT22;57018;50.278;19.134;2022-12-07T20:01:04;4.20;90.70
69747;DHT22;57018;50.278;19.134;2022-12-07T20:03:34;4.00;90.10
69747;DHT22;57018;50.278;19.134;2022-12-07T20:06:10;4.00;89.80
69747;DHT22;57018;50.278;19.134;2022-12-07T20:08:40;4.10;89.90
69747;DHT22;57018;50.278;19.134;2022-12-07T20:11:11;4.20;89.80
69747;DHT22;57018;50.278;19.134;2022-12-07T20:13:59;4.20;89.70
69747;DHT22;57018;50.278;19.134;2022-12-07T20:16:29;4.10;89.60
69747;DHT22;57018;50.278;19.134;2022-12-07T20:19:00;4.40;89.70
69747;DHT22;57018;50.278;19.134;2022-12-07T20:21:30;4.40;90.00
69747;DHT22;57018;50.278;19.134;2022-12-07T20:24:02;4.20;90.60
69747;DHT22;57018;50.278;19.134;2022-12-07T20:26:33;4.20;91.30
69747;DHT22;57018;50.278;19.134;2022-12-07T20:29:06;4.10;91.90
69747;DHT22;57018;50.278;19.134;2022-12-07T20:31:36;4.20;92.80
69747;DHT22;57018;50.278;19.134;2022-12-07T20:34:06;4.20;93.40
69747;DHT22;57018;50.278;19.134;2022-12-07T20:36:36;4.10;93.30
69747;DHT22;57018;50.278;19.134;2022-12-07T20:39:05;4.00;93.70
69747;DHT22;57018;50.278;19.134;2022-12-07T20:41:35;4.00;94.00
69747;DHT22;57018;50.278;19.134;2022-12-07T20:44:24;4.00;94.40
69747;DHT22;57018;50.278;19.134;2022-12-07T20:46:55;3.90;94.90
69747;DHT22;57018;50.278;19.134;2022-12-07T20:49:24;3.90;94.90
69747;DHT22;57018;50.278;19.134;2022-12-07T20:51:55;3.80;95.60
69747;DHT22;57018;50.278;19.134;2022-12-07T20:54:25;3.80;95.70
69747;DHT22;57018;50.278;19.134;2022-12-07T20:56:55;3.90;95.40
69747;DHT22;57018;50.278;19.134;2022-12-07T20:59:24;3.80;95.90
69747;DHT22;57018;50.278;19.134;2022-12-07T21:01:54;3.80;95.90
69747;DHT22;57018;50.278;19.134;2022-12-07T21:04:24;3.80;96.30
69747;DHT22;57018;50.278;19.134;2022-12-07T21:06:54;3.90;96.10
69747;DHT22;57018;50.278;19.134;2022-12-07T21:09:24;4.10;96.30
69747;DHT22;57018;50.278;19.134;2022-12-07T21:11:55;3.80;96.30
69747;DHT22;57018;50.278;19.134;2022-12-07T21:14:23;4.00;95.90
69747;DHT22;57018;50.278;19.134;2022-12-07T21:16:53;4.10;95.70
69747;DHT22;57018;50.278;19.134;2022-12-07T21:19:23;4.00;95.70
69747;DHT22;57018;50.278;19.134;2022-12-07T21:21:53;3.90;95.70
69747;DHT22;57018;50.278;19.134;2022-12-07T21:24:23;4.00;95.80
69747;DHT22;57018;50.278;19.134;2022-12-07T21:26:55;3.90;95.20
69747;DHT22;57018;50.278;19.134;2022-12-07T21:29:25;3.90;95.40
69747;DHT22;57018;50.278;19.134;2022-12-07T21:31:55;4.00;95.20
69747;DHT22;57018;50.278;19.134;2022-12-07T21:34:25;3.90;95.40
69747;DHT22;57018;50.278;19.134;2022-12-07T21:36:55;4.10;95.60
69747;DHT22;57018;50.278;19.134;2022-12-07T21:39:24;3.90;95.40
69747;DHT22;57018;50.278;19.134;2022-12-07T21:41:54;4.00;95.50
69747;DHT22;57018;50.278;19.134;2022-12-07T21:44:24;4.10;95.50
69747;DHT22;57018;50.278;19.134;2022-12-07T21:46:54;4.10;95.30
69747;DHT22;57018;50.278;19.134;2022-12-07T21:49:24;4.10;94.70
69747;DHT22;57018;50.278;19.134;2022-12-07T21:51:54;4.00;94.60
69747;DHT22;57018;50.278;19.134;2022-12-07T21:54:24;3.90;94.50
69747;DHT22;57018;50.278;19.134;2022-12-07T21:56:53;3.90;94.60
69747;DHT22;57018;50.278;19.134;2022-12-07T21:59:23;3.70;94.40
69747;DHT22;57018;50.278;19.134;2022-12-07T22:01:53;3.70;94.50
69747;DHT22;57018;50.278;19.134;2022-12-07T22:04:24;3.80;94.20
69747;DHT22;57018;50.278;19.134;2022-12-07T22:06:55;3.70;94.20
69747;DHT22;57018;50.278;19.134;2022-12-07T22:09:24;3.70;93.90
69747;DHT22;57018;50.278;19.134;2022-12-07T22:11:57;3.60;93.70
69747;DHT22;57018;50.278;19.134;2022-12-07T22:14:25;3.70;93.30
69747;DHT22;57018;50.278;19.134;2022-12-07T22:17:13;3.50;93.80
69747;DHT22;57018;50.278;19.134;2022-12-07T22:19:43;3.70;93.70
69747;DHT22;57018;50.278;19.134;2022-12-07T22:22:13;3.90;93.80
69747;DHT22;57018;50.278;19.134;2022-12-07T22:24:44;3.90;93.70
69747;DHT22;57018;50.278;19.134;2022-12-07T22:27:15;4.00;93.50
69747;DHT22;57018;50.278;19.134;2022-12-07T22:29:45;3.90;93.50
69747;DHT22;57018;50.278;19.134;2022-12-07T22:32:15;3.70;92.70
69747;DHT22;57018;50.278;19.134;2022-12-07T22:34:45;3.70;93.10
69747;DHT22;57018;50.278;19.134;2022-12-07T22:37:15;3.60;92.60
69747;DHT22;57018;50.278;19.134;2022-12-07T22:39:46;3.70;92.40
69747;DHT22;57018;50.278;19.134;2022-12-07T22:42:14;3.60;92.50
69747;DHT22;57018;50.278;19.134;2022-12-07T22:44:45;3.50;92.40
69747;DHT22;57018;50.278;19.134;2022-12-07T22:47:15;3.70;92.10
69747;DHT22;57018;50.278;19.134;2022-12-07T22:49:45;3.60;92.10
69747;DHT22;57018;50.278;19.134;2022-12-07T22:52:15;3.50;92.00
69747;DHT22;57018;50.278;19.134;2022-12-07T22:54:45;3.70;92.40
69747;DHT22;57018;50.278;19.134;2022-12-07T22:57:15;3.50;91.90
69747;DHT22;57018;50.278;19.134;2022-12-07T22:59:45;3.70;91.90
69747;DHT22;57018;50.278;19.134;2022-12-07T23:02:14;3.70;91.80
69747;DHT22;57018;50.278;19.134;2022-12-07T23:04:44;3.70;91.30
69747;DHT22;57018;50.278;19.134;2022-12-07T23:07:12;3.80;91.10
69747;DHT22;57018;50.278;19.134;2022-12-07T23:09:42;3.70;91.00
69747;DHT22;57018;50.278;19.134;2022-12-07T23:12:12;3.60;91.20
69747;DHT22;57018;50.278;19.134;2022-12-07T23:15:00;3.70;91.10
69747;DHT22;57018;50.278;19.134;2022-12-07T23:17:30;3.60;91.30
69747;DHT22;57018;50.278;19.134;2022-12-07T23:20:00;3.70;91.40
69747;DHT22;57018;50.278;19.134;2022-12-07T23:22:29;3.60;91.60
69747;DHT22;57018;50.278;19.134;2022-12-07T23:24:59;3.60;92.00
69747;DHT22;57018;50.278;19.134;2022-12-07T23:27:29;3.50;92.10
69747;DHT22;57018;50.278;19.134;2022-12-07T23:29:59;3.20;92.20
69747;DHT22;57018;50.278;19.134;2022-12-07T23:32:29;3.20;91.90
69747;DHT22;57018;50.278;19.134;2022-12-07T23:34:57;3.30;92.30
69747;DHT22;57018;50.278;19.134;2022-12-07T23:37:27;3.20;92.50
69747;DHT22;57018;50.278;19.134;2022-12-07T23:39:57;3.30;92.50
69747;DHT22;57018;50.278;19.134;2022-12-07T23:42:26;3.30;92.50
69747;DHT22;57018;50.278;19.134;2022-12-07T23:44:56;3.40;92.70
69747;DHT22;57018;50.278;19.134;2022-12-07T23:47:24;3.30;92.20
69747;DHT22;57018;50.278;19.134;2022-12-07T23:49:54;3.30;92.40
69747;DHT22;57018;50.278;19.134;2022-12-07T23:52:24;3.50;92.20
69747;DHT22;57018;50.278;19.134;2022-12-07T23:54:54;3.40;92.10
69747;DHT22;57018;50.278;19.134;2022-12-07T23:57:24;3.40;92.50
69747;DHT22;57018;50.278;19.134;2022-12-07T23:59:54;3.40;92.30
